METAR Data
IDs: Format: Raw Decoded Include TAF

Data at: 1826 UTC 16 Oct 2021

KRYW 161815Z AUTO 01007G15KT 10SM CLR 22/02 A3037 RMK AO2 T02150017
KRYW 161755Z AUTO 04011G15KT 10SM CLR 21/03 A3039 RMK AO2 T02140031 10214 20101
KRYW 161735Z AUTO 03009G15KT 360V060 10SM CLR 21/03 A3039 RMK AO2 T02060027
KRYW 161715Z AUTO 04006G16KT 040V100 10SM CLR 20/03 A3039 RMK AO2 T02020026
KRYW 161655Z AUTO 04007G16KT 10SM CLR 20/02 A3039 RMK AO2 T02000022
KRYW 161635Z AUTO 02006G14KT 350V050 10SM CLR 20/03 A3040 RMK AO2 T01960033
KRYW 161615Z AUTO 03008G15KT 350V050 10SM CLR 19/04 A3040 RMK AO2 T01930042
KRYW 161555Z AUTO 05006KT 10SM CLR 19/05 A3040 RMK AO2 T01860052
KRYW 161535Z AUTO 03009G14KT 010V070 10SM CLR 18/05 A3039 RMK AO2 T01800054
KRYW 161515Z AUTO 04007G15KT 10SM CLR 17/06 A3039 RMK AO2 T01710058
KRYW 161455Z AUTO 04008G14KT 010V080 10SM CLR 16/06 A3038 RMK AO2 T01610058
KRYW 161435Z AUTO 04006G15KT 10SM CLR 15/06 A3038 RMK AO2 T01480059
KRYW 161415Z AUTO 03006KT 010V070 10SM CLR 14/06 A3037 RMK AO2 T01350060
KRYW 161355Z AUTO 03008KT 10SM CLR 13/06 A3037 RMK AO2 T01250056
KRYW 161335Z AUTO 02007KT 10SM CLR 12/06 A3035 RMK AO2 T01160055
KRYW 161315Z AUTO 03008KT 10SM CLR 11/06 A3034 RMK AO2 T01080055
KRYW 161255Z AUTO 02006KT 10SM CLR 10/05 A3034 RMK AO2 T01010052
KRYW 161235Z AUTO 01007KT 10SM CLR 11/05 A3033 RMK AO2 T01050053
KRYW 161215Z AUTO 01007G14KT 10SM CLR 10/06 A3033 RMK AO2 T01040055
KRYW 161155Z AUTO 02009G14KT 10SM CLR 11/06 A3032 RMK AO2 T01050055 10152 20105
KRYW 161135Z AUTO 02008KT 10SM CLR 11/06 A3031 RMK AO2 T01060055
KRYW 161115Z AUTO 02007KT 10SM CLR 11/06 A3031 RMK AO2 T01090055
KRYW 161055Z AUTO 02009G15KT 10SM CLR 11/06 A3030 RMK AO2 T01120055
KRYW 161035Z AUTO 02008G15KT 10SM CLR 12/06 A3029 RMK AO2 T01150056
KRYW 161015Z AUTO 02009G14KT 10SM CLR 12/06 A3029 RMK AO2 T01170056
KRYW 160955Z AUTO 01008G15KT 10SM CLR 12/06 A3029 RMK AO2 T01200058
KRYW 160935Z AUTO 01009G16KT 10SM CLR 12/06 A3028 RMK AO2 T01220060
KRYW 160915Z AUTO 01009KT 10SM CLR 12/06 A3028 RMK AO2 T01220063
KRYW 160855Z AUTO 01008KT 10SM CLR 12/06 A3028 RMK AO2 T01230063
KRYW 160835Z AUTO 01008KT 10SM CLR 13/07 A3028 RMK AO2 T01250065
KRYW 160815Z AUTO 02009G14KT 10SM CLR 13/07 A3028 RMK AO2 T01270065
KRYW 160755Z AUTO 02009G14KT 10SM CLR 13/07 A3028 RMK AO2 T01310066
KRYW 160735Z AUTO 02008KT 10SM CLR 14/07 A3028 RMK AO2 T01350065
KRYW 160715Z AUTO 02009G15KT 10SM CLR 14/07 A3027 RMK AO2 T01400065
KRYW 160655Z AUTO 03008KT 10SM CLR 14/06 A3027 RMK AO2 T01420063
KRYW 160635Z AUTO 02009G14KT 10SM CLR 15/07 A3026 RMK AO2 T01450065
KRYW 160615Z AUTO 03007KT 10SM CLR 15/07 A3026 RMK AO2 T01480065
KRYW 160555Z AUTO 01008G14KT 10SM CLR 15/07 A3026 RMK AO2 T01520069 10221 20152 403100152
KRYW 160535Z AUTO 02008G15KT 10SM CLR 16/07 A3026 RMK AO2 T01550070
KRYW 160515Z AUTO 02010G17KT 10SM CLR 16/07 A3025 RMK AO2 T01600071
KRYW 160455Z AUTO 02010G16KT 10SM CLR 16/08 A3025 RMK AO2 T01630075
KRYW 160435Z AUTO 02011G21KT 10SM CLR 17/08 A3025 RMK AO2 T01650076
KRYW 160415Z AUTO 02009G15KT 10SM CLR 17/08 A3024 RMK AO2 T01670079
KRYW 160355Z AUTO 02009KT 10SM CLR 17/08 A3023 RMK AO2 T01700083
KRYW 160335Z AUTO 01009G18KT 10SM CLR 17/09 A3021 RMK AO2 T01730089
KRYW 160315Z AUTO 01009G16KT 10SM CLR 18/10 A3020 RMK AO2 T01750095
KRYW 160255Z AUTO 02007G15KT 10SM CLR 18/10 A3018 RMK AO2 T01770102
KRYW 160235Z AUTO 02007KT 10SM CLR 18/11 A3016 RMK AO2 T01800105
KRYW 160215Z AUTO 02006G14KT 10SM CLR 19/11 A3015 RMK AO2 T01850105
KRYW 160155Z AUTO 01007G14KT 10SM CLR 19/11 A3015 RMK AO2 T01880107
KRYW 160135Z AUTO 01009KT 10SM CLR 19/11 A3015 RMK AO2 T01900112
KRYW 160115Z AUTO 01006KT 10SM CLR 19/12 A3014 RMK AO2 T01940117
KRYW 160055Z AUTO 01006KT 10SM CLR 20/12 A3013 RMK AO2 T02000117
KRYW 160035Z AUTO 36008KT 320V020 10SM CLR 20/12 A3011 RMK AO2 T02040120
KRYW 160015Z AUTO 01010G15KT 340V040 10SM CLR 21/12 A3010 RMK AO2 T02110122
KRYW 152355Z AUTO 36009G14KT 330V040 10SM CLR 22/13 A3010 RMK AO2 T02220130 10310 20222
KRYW 152335Z AUTO 36007KT 10SM CLR 23/13 A3009 RMK AO2 T02300134
KRYW 152315Z AUTO 36005KT 10SM CLR 23/14 A3008 RMK AO2 T02330135
KRYW 152255Z AUTO 35011G17KT 10SM CLR 23/14 A3008 RMK AO2 T02310136
KRYW 152235Z AUTO 36010G16KT 10SM CLR 23/14 A3007 RMK AO2 T02320135
KRYW 152215Z AUTO 35009G15KT 10SM CLR 24/14 A3006 RMK AO2 T02350141
KRYW 152155Z AUTO 35010G19KT 10SM CLR 24/13 A3005 RMK AO2 T02440134
KRYW 152135Z AUTO 35010G20KT 320V020 10SM CLR 25/15 A3004 RMK AO2 T02500145
KRYW 152115Z AUTO 01012G17KT 10SM CLR 25/15 A3003 RMK AO2 T02460147
KRYW 152055Z AUTO 01014G21KT 10SM CLR 26/16 A3003 RMK AO2 T02560155
KRYW 152035Z AUTO 01013G17KT 10SM CLR 26/16 A3003 RMK AO2 T02640162
KRYW 152015Z AUTO 34009G17KT 10SM CLR 26/16 A3003 RMK AO2 T02560158
KRYW 151955Z AUTO 36013G20KT 10SM SCT039 27/15 A3002 RMK AO2 T02670154
KRYW 151935Z AUTO 34010G17KT 10SM BKN039 28/16 A3002 RMK AO2 T02820162
KRYW 151915Z AUTO 34010G15KT 10SM SCT033 SCT040 SCT085 28/17 A3002 RMK AO2 T02790166
KRYW 151855Z AUTO 34010G14KT 10SM BKN032 BKN040 BKN070 29/20 A3002 RMK AO2 T02860203
KRYW 151835Z AUTO 29004KT 10SM SCT027 SCT041 SCT060 30/21 A3001 RMK AO2 T03010214
KRYW 151815Z AUTO 28007KT 260V330 10SM SCT027 SCT033 SCT039 30/21 A3002 RMK AO2 T02990214
KRYW 151755Z AUTO 29005KT 10SM SCT025 SCT029 BKN043 29/22 A3002 RMK AO2 T02890220 10291 20215
KRYW 151735Z AUTO 30007KT 10SM BKN025 OVC032 28/21 A3003 RMK AO2 T02800214
KRYW 151715Z AUTO 26008KT 10SM BKN023 BKN028 29/22 A3003 RMK AO2 T02910217
KRYW 151655Z AUTO 26006KT 10SM SCT019 SCT030 28/22 A3003 RMK AO2 T02790220
KRYW 151635Z AUTO 25007KT 10SM SCT025 BKN030 27/22 A3003 RMK AO2 T02650224
KRYW 151615Z AUTO 25005KT 10SM SCT014 SCT020 OVC025 26/22 A3003 RMK AO2 T02590224
KRYW 151555Z AUTO 25005KT 10SM SCT010 SCT014 BKN026 26/22 A3002 RMK AO2 T02580224
KRYW 151535Z AUTO 26004KT 10SM SCT007 BKN026 26/23 A3002 RMK AO2 T02550226
KRYW 151515Z AUTO 25006KT 10SM BKN026 25/23 A3001 RMK AO2 T02500226
KRYW 151455Z AUTO 25004KT 10SM SCT004 SCT026 25/23 A3001 RMK AO2 T02460229
KRYW 151435Z AUTO 25003KT 10SM SCT004 SCT021 24/22 A3000 RMK AO2 T02350220
KRYW 151415Z AUTO 26003KT 10SM SCT021 24/23 A2999 RMK AO2 T02350225
KRYW 151355Z AUTO 00000KT 10SM SCT009 SCT023 23/23 A2998 RMK AO2 T02300225
KRYW 151335Z AUTO 25003KT 10SM BKN009 BKN025 22/22 A2997 RMK AO2 T02220218
KRYW 151315Z AUTO 00000KT 7SM OVC009 22/22 A2996 RMK AO2 T02200216
KRYW 151255Z AUTO 28003KT 7SM OVC007 22/21 A2996 RMK AO2 T02160212
KRYW 151235Z AUTO 29003KT 5SM BR OVC004 22/21 A2996 RMK AO2 T02160212
KRYW 151215Z AUTO 29003KT 5SM BR OVC002 22/21 A2995 RMK AO2 T02150211
KRYW 151155Z AUTO 28004KT 4SM BR OVC002 22/21 A2994 RMK AO2 70001 T02150210 10217 20205
KRYW 151135Z AUTO 27003KT 4SM BR OVC002 22/21 A2993 RMK AO2 T02160211
KRYW 151115Z AUTO 25004KT 7SM OVC004 22/21 A2993 RMK AO2 T02170212
KRYW 151055Z AUTO 21006KT 7SM OVC004 22/21 A2992 RMK AO2 T02160211
KRYW 151035Z AUTO 21004KT 7SM OVC004 22/21 A2991 RMK AO2 T02150210
KRYW 151015Z AUTO 21004KT 7SM OVC006 22/21 A2991 RMK AO2 T02150210
KRYW 150955Z AUTO 00000KT 3SM BR SCT002 OVC008 21/21 A2991 RMK AO2 T02130207
KRYW 150935Z AUTO 00000KT 2SM BR OVC002 21/21 A2990 RMK AO2 T02120206
KRYW 150915Z AUTO 00000KT 1SM BR OVC002 21/20 A2990 RMK AO2 T02100203
KRYW 150855Z AUTO 22003KT 3SM BR OVC002 21/20 A2991 RMK AO2 T02100203
KRYW 150835Z AUTO 21003KT 7SM SCT001 BKN007 OVC013 21/20 A2990 RMK AO2 T02100201
KRYW 150815Z AUTO 00000KT 1/2SM FG BKN001 OVC013 21/20 A2990 RMK AO2 VIS 1/4V4 T02050195
KRYW 150755Z AUTO 20003KT 7SM CLR 21/20 A2990 RMK AO2 T02060195
KRYW 150735Z AUTO 20003KT 5SM BR SCT001 21/20 A2990 RMK AO2 T02060195
KRYW 150715Z AUTO 18004KT 3SM BR OVC001 21/19 A2990 RMK AO2 T02060192
KRYW 150655Z AUTO 15003KT 1 1/4SM BR OVC001 21/19 A2990 RMK AO2 T02070192
KRYW 150635Z AUTO 17004KT 1/4SM FG OVC001 21/20 A2990 RMK AO2 T02100195